Itaberai, Brazil
Current Conditions -  °F | °C
As of 1:00 PM on Thursday 30 Oct 2014 (Local Time) from SBGO Reporting Station
Broken Clouds Broken Clouds  
Wind Chill: 82°   Ceiling: 10000
Heat Index: 84°   Visibility: 6mi
Dew Point: 64°   Wind: 10mph
Humidity: 54%   Direction: 310°NW
Pressure: 29.97"   Gusts: NA
Location:  16.02°S, 49.81°W
Report Text: SBGO 301500Z 31009KT 9999 SCT025 BKN100 28/18 Q1015
Loading
Personal Weather Stations






























Interactive Weather Map
Tropical Storm Tracking
New forecast layout! Learn more

10-Day Weather Forecast

Advertisements
Track Severe Weather on mobile